Pagrindinis puslapis
METAR-TAF:

METAR-TAF

Oro uostai :

Kinšasa, Kongas

platuma: 04-23S, ilguma: 015-26E, Aukštis: 309 m

Dabartinis oras

Ataskaita buvo paskelbta 2 valandos ir 56 minutes, ne 06:00 UTC
Ramus vėjas
Temperatūra 22°C
Drėgmė 88%
Slėgis 1014 hPa
Matomumas: 4000 m
Mažai debesys ne aukštis 1400 ft
rūkana

METAR: FZAA 210600Z 00000KT 4000 BR FEW014 22/20 Q1014 NOSIG

Laikas: 09:56 (08:56 UTC)

Prognozė

Ataskaita buvo paskelbta 3 valandos ir 56 minutes, ne 05:00 UTC
Prognozė galioja nuo 21 metu 06 UTC su 22 metu 12 UTC
Vėjas 6 kt iš Vakarų/Pietvakarių
Matomumas: 7000 m
Su prošvaistėmis ne aukštis 1800 ft
Tapsmas
nuo 21 metu 11 UTC su 21 metu 13 UTC
Vėjas 10 kt iš Šiaurės/Šiaurės Vakarų
Mažai debesys ne aukštis 2200 ft

TAF: FZAA 210500Z 2106/2212 24006KT 7000 BKN018 BECMG 2111/2113 33010KT FEW022

Orai ataskaitas ir orų prognozės (METAR, TAF).

turimą stotys yra geltonos ir raudonos taškus žemėlapyje.

Perkelti pele per norėdami pamatyti stoties vardą.

Tada spustelėkite, norėdami matyti oro stebėjimo ir prognozės.

Norėdami pakeisti žemėlapį: spustelėkite ant žalios mygtukų su juodo kryžiaus žemyn,; žalią mygtuką su brūkšneliu, jei norite nutolinti; arba žalių rodyklių gretimoms žemėlapius.


METAR-TAF: